sensor_id;sensor_type;location;lat;lon;timestamp;P1;durP1;ratioP1;P2;durP2;ratioP2
20002;SDS011;10162;41.600;23.806;2022-09-06T00:02:37;5.67;;;4.97;;
20002;SDS011;10162;41.600;23.806;2022-09-06T00:05:04;6.47;;;4.73;;
20002;SDS011;10162;41.600;23.806;2022-09-06T00:07:36;5.47;;;4.97;;
20002;SDS011;10162;41.600;23.806;2022-09-06T00:10:03;7.07;;;4.83;;
20002;SDS011;10162;41.600;23.806;2022-09-06T00:12:29;8.37;;;5.70;;
20002;SDS011;10162;41.600;23.806;2022-09-06T00:14:56;5.57;;;4.73;;
20002;SDS011;10162;41.600;23.806;2022-09-06T00:20:38;6.60;;;4.80;;
20002;SDS011;10162;41.600;23.806;2022-09-06T00:23:05;7.63;;;4.90;;
20002;SDS011;10162;41.600;23.806;2022-09-06T00:25:32;8.17;;;5.30;;
20002;SDS011;10162;41.600;23.806;2022-09-06T00:31:10;11.60;;;5.50;;
20002;SDS011;10162;41.600;23.806;2022-09-06T00:33:38;6.13;;;5.53;;
20002;SDS011;10162;41.600;23.806;2022-09-06T00:36:04;6.43;;;5.47;;
20002;SDS011;10162;41.600;23.806;2022-09-06T00:41:21;5.57;;;5.07;;
20002;SDS011;10162;41.600;23.806;2022-09-06T00:43:47;10.27;;;5.57;;
20002;SDS011;10162;41.600;23.806;2022-09-06T00:46:16;6.57;;;5.80;;
20002;SDS011;10162;41.600;23.806;2022-09-06T00:52:05;7.73;;;5.60;;
20002;SDS011;10162;41.600;23.806;2022-09-06T00:54:35;8.73;;;5.60;;
20002;SDS011;10162;41.600;23.806;2022-09-06T00:57:01;6.63;;;5.50;;
20002;SDS011;10162;41.600;23.806;2022-09-06T00:59:35;6.27;;;5.63;;
20002;SDS011;10162;41.600;23.806;2022-09-06T01:02:04;8.83;;;6.13;;
20002;SDS011;10162;41.600;23.806;2022-09-06T01:04:31;6.47;;;5.07;;
20002;SDS011;10162;41.600;23.806;2022-09-06T01:15:47;6.00;;;5.40;;
20002;SDS011;10162;41.600;23.806;2022-09-06T01:25:12;7.67;;;6.23;;
20002;SDS011;10162;41.600;23.806;2022-09-06T01:31:51;6.60;;;5.67;;
20002;SDS011;10162;41.600;23.806;2022-09-06T01:34:36;12.13;;;5.77;;
20002;SDS011;10162;41.600;23.806;2022-09-06T01:37:13;8.60;;;5.77;;
20002;SDS011;10162;41.600;23.806;2022-09-06T01:39:44;6.83;;;6.13;;
20002;SDS011;10162;41.600;23.806;2022-09-06T01:42:21;8.27;;;6.23;;
20002;SDS011;10162;41.600;23.806;2022-09-06T01:45:00;7.70;;;6.10;;
20002;SDS011;10162;41.600;23.806;2022-09-06T02:05:27;7.40;;;5.70;;
20002;SDS011;10162;41.600;23.806;2022-09-06T02:13:21;6.80;;;5.80;;
20002;SDS011;10162;41.600;23.806;2022-09-06T02:15:52;6.90;;;5.80;;
20002;SDS011;10162;41.600;23.806;2022-09-06T02:21:44;5.33;;;4.83;;
20002;SDS011;10162;41.600;23.806;2022-09-06T02:24:16;7.10;;;6.00;;
20002;SDS011;10162;41.600;23.806;2022-09-06T02:26:47;8.10;;;6.03;;
20002;SDS011;10162;41.600;23.806;2022-09-06T02:29:15;6.10;;;5.47;;
20002;SDS011;10162;41.600;23.806;2022-09-06T02:31:43;6.83;;;5.87;;
20002;SDS011;10162;41.600;23.806;2022-09-06T02:34:16;6.53;;;5.63;;
20002;SDS011;10162;41.600;23.806;2022-09-06T02:36:43;6.50;;;5.83;;
20002;SDS011;10162;41.600;23.806;2022-09-06T02:42:11;5.90;;;5.30;;
20002;SDS011;10162;41.600;23.806;2022-09-06T02:44:39;7.90;;;5.80;;
20002;SDS011;10162;41.600;23.806;2022-09-06T02:47:05;5.37;;;4.87;;
20002;SDS011;10162;41.600;23.806;2022-09-06T02:52:37;5.43;;;4.93;;
20002;SDS011;10162;41.600;23.806;2022-09-06T02:55:03;6.00;;;5.40;;
20002;SDS011;10162;41.600;23.806;2022-09-06T02:57:36;5.83;;;4.90;;
20002;SDS011;10162;41.600;23.806;2022-09-06T03:00:03;5.27;;;4.73;;
20002;SDS011;10162;41.600;23.806;2022-09-06T03:02:29;5.57;;;4.87;;
20002;SDS011;10162;41.600;23.806;2022-09-06T03:04:54;7.30;;;5.67;;
20002;SDS011;10162;41.600;23.806;2022-09-06T03:07:20;8.13;;;5.83;;
20002;SDS011;10162;41.600;23.806;2022-09-06T03:09:46;8.27;;;5.37;;
20002;SDS011;10162;41.600;23.806;2022-09-06T03:12:12;7.33;;;5.57;;
20002;SDS011;10162;41.600;23.806;2022-09-06T03:14:37;5.80;;;5.17;;
20002;SDS011;10162;41.600;23.806;2022-09-06T03:17:05;10.40;;;6.00;;
20002;SDS011;10162;41.600;23.806;2022-09-06T03:23:19;5.83;;;5.23;;
20002;SDS011;10162;41.600;23.806;2022-09-06T03:25:45;6.70;;;6.00;;
20002;SDS011;10162;41.600;23.806;2022-09-06T03:28:19;7.90;;;6.27;;
20002;SDS011;10162;41.600;23.806;2022-09-06T03:30:50;6.63;;;5.87;;
20002;SDS011;10162;41.600;23.806;2022-09-06T03:33:17;7.83;;;6.33;;
20002;SDS011;10162;41.600;23.806;2022-09-06T03:35:47;7.33;;;6.23;;
20002;SDS011;10162;41.600;23.806;2022-09-06T03:38:30;6.50;;;5.30;;
20002;SDS011;10162;41.600;23.806;2022-09-06T03:40:56;6.70;;;5.70;;
20002;SDS011;10162;41.600;23.806;2022-09-06T03:43:22;7.03;;;6.33;;
20002;SDS011;10162;41.600;23.806;2022-09-06T03:45:51;6.77;;;6.13;;
20002;SDS011;10162;41.600;23.806;2022-09-06T03:51:05;6.57;;;5.93;;
20002;SDS011;10162;41.600;23.806;2022-09-06T03:53:31;6.80;;;5.73;;
20002;SDS011;10162;41.600;23.806;2022-09-06T03:55:57;10.30;;;5.97;;
20002;SDS011;10162;41.600;23.806;2022-09-06T03:58:36;7.33;;;6.17;;
20002;SDS011;10162;41.600;23.806;2022-09-06T04:01:06;8.73;;;5.77;;
20002;SDS011;10162;41.600;23.806;2022-09-06T04:03:33;7.30;;;6.13;;
20002;SDS011;10162;41.600;23.806;2022-09-06T04:06:00;10.47;;;6.53;;
20002;SDS011;10162;41.600;23.806;2022-09-06T04:11:34;6.90;;;5.47;;
20002;SDS011;10162;41.600;23.806;2022-09-06T04:14:00;7.23;;;6.13;;
20002;SDS011;10162;41.600;23.806;2022-09-06T04:16:26;6.73;;;6.03;;
20002;SDS011;10162;41.600;23.806;2022-09-06T04:21:48;9.33;;;5.63;;
20002;SDS011;10162;41.600;23.806;2022-09-06T04:24:14;7.93;;;6.23;;
20002;SDS011;10162;41.600;23.806;2022-09-06T04:26:40;6.93;;;6.23;;
20002;SDS011;10162;41.600;23.806;2022-09-06T04:29:06;8.37;;;6.67;;
20002;SDS011;10162;41.600;23.806;2022-09-06T04:31:32;7.67;;;6.83;;
20002;SDS011;10162;41.600;23.806;2022-09-06T04:33:57;9.43;;;6.13;;
20002;SDS011;10162;41.600;23.806;2022-09-06T04:36:23;8.57;;;6.27;;
20002;SDS011;10162;41.600;23.806;2022-09-06T04:41:49;8.87;;;6.43;;
20002;SDS011;10162;41.600;23.806;2022-09-06T04:44:14;9.37;;;6.60;;
20002;SDS011;10162;41.600;23.806;2022-09-06T04:46:40;6.17;;;5.57;;
20002;SDS011;10162;41.600;23.806;2022-09-06T04:52:06;6.60;;;5.83;;
20002;SDS011;10162;41.600;23.806;2022-09-06T04:54:32;6.70;;;5.77;;
20002;SDS011;10162;41.600;23.806;2022-09-06T04:56:58;6.73;;;5.87;;
20002;SDS011;10162;41.600;23.806;2022-09-06T05:03:10;7.97;;;6.63;;
20002;SDS011;10162;41.600;23.806;2022-09-06T05:05:36;8.10;;;6.90;;
20002;SDS011;10162;41.600;23.806;2022-09-06T05:11:48;8.37;;;6.73;;
20002;SDS011;10162;41.600;23.806;2022-09-06T05:14:14;7.70;;;6.30;;
20002;SDS011;10162;41.600;23.806;2022-09-06T05:16:40;8.97;;;5.80;;
20002;SDS011;10162;41.600;23.806;2022-09-06T05:22:52;10.23;;;7.70;;
20002;SDS011;10162;41.600;23.806;2022-09-06T05:25:21;8.70;;;7.47;;
20002;SDS011;10162;41.600;23.806;2022-09-06T05:31:34;7.93;;;7.17;;
20002;SDS011;10162;41.600;23.806;2022-09-06T05:34:00;8.37;;;7.30;;
20002;SDS011;10162;41.600;23.806;2022-09-06T05:36:27;9.03;;;6.93;;
20002;SDS011;10162;41.600;23.806;2022-09-06T05:42:40;7.60;;;6.73;;
20002;SDS011;10162;41.600;23.806;2022-09-06T05:45:06;7.13;;;6.23;;
20002;SDS011;10162;41.600;23.806;2022-09-06T05:51:33;7.63;;;6.90;;
20002;SDS011;10162;41.600;23.806;2022-09-06T05:53:59;8.20;;;6.57;;
20002;SDS011;10162;41.600;23.806;2022-09-06T05:56:24;7.87;;;6.70;;
20002;SDS011;10162;41.600;23.806;2022-09-06T06:02:37;11.43;;;6.97;;
20002;SDS011;10162;41.600;23.806;2022-09-06T06:05:04;9.87;;;8.87;;
20002;SDS011;10162;41.600;23.806;2022-09-06T06:07:31;9.20;;;8.20;;
20002;SDS011;10162;41.600;23.806;2022-09-06T06:09:56;8.73;;;7.10;;
20002;SDS011;10162;41.600;23.806;2022-09-06T06:12:22;10.17;;;7.10;;
20002;SDS011;10162;41.600;23.806;2022-09-06T06:14:48;10.57;;;6.97;;
20002;SDS011;10162;41.600;23.806;2022-09-06T06:17:14;8.17;;;7.10;;
20002;SDS011;10162;41.600;23.806;2022-09-06T06:23:27;7.47;;;6.77;;
20002;SDS011;10162;41.600;23.806;2022-09-06T06:25:53;9.80;;;6.30;;
20002;SDS011;10162;41.600;23.806;2022-09-06T06:32:05;8.30;;;6.17;;
20002;SDS011;10162;41.600;23.806;2022-09-06T06:34:31;6.73;;;6.13;;
20002;SDS011;10162;41.600;23.806;2022-09-06T06:36:56;6.40;;;5.80;;
20002;SDS011;10162;41.600;23.806;2022-09-06T06:43:10;6.93;;;6.23;;
20002;SDS011;10162;41.600;23.806;2022-09-06T06:45:36;8.90;;;6.53;;
20002;SDS011;10162;41.600;23.806;2022-09-06T06:51:49;6.77;;;6.17;;
20002;SDS011;10162;41.600;23.806;2022-09-06T06:54:15;6.70;;;6.10;;
20002;SDS011;10162;41.600;23.806;2022-09-06T06:56:40;6.63;;;6.03;;
20002;SDS011;10162;41.600;23.806;2022-09-06T07:02:54;8.50;;;6.43;;
20002;SDS011;10162;41.600;23.806;2022-09-06T07:05:21;8.03;;;7.23;;
20002;SDS011;10162;41.600;23.806;2022-09-06T07:11:34;7.73;;;6.83;;
20002;SDS011;10162;41.600;23.806;2022-09-06T07:14:00;7.07;;;6.27;;
20002;SDS011;10162;41.600;23.806;2022-09-06T07:16:26;10.63;;;6.87;;
20002;SDS011;10162;41.600;23.806;2022-09-06T07:22:41;7.87;;;6.73;;
20002;SDS011;10162;41.600;23.806;2022-09-06T07:25:07;7.63;;;5.50;;
20002;SDS011;10162;41.600;23.806;2022-09-06T07:31:21;5.43;;;4.83;;
20002;SDS011;10162;41.600;23.806;2022-09-06T07:33:47;5.73;;;5.23;;
20002;SDS011;10162;41.600;23.806;2022-09-06T07:36:14;5.90;;;4.53;;
20002;SDS011;10162;41.600;23.806;2022-09-06T07:42:26;6.77;;;5.27;;
20002;SDS011;10162;41.600;23.806;2022-09-06T07:44:52;5.30;;;4.80;;
20002;SDS011;10162;41.600;23.806;2022-09-06T07:47:22;5.30;;;4.90;;
20002;SDS011;10162;41.600;23.806;2022-09-06T07:49:47;4.90;;;4.50;;
20002;SDS011;10162;41.600;23.806;2022-09-06T07:52:13;6.50;;;4.63;;
20002;SDS011;10162;41.600;23.806;2022-09-06T07:54:39;5.17;;;4.63;;
20002;SDS011;10162;41.600;23.806;2022-09-06T07:57:05;6.60;;;5.90;;
20002;SDS011;10162;41.600;23.806;2022-09-06T08:03:18;5.30;;;4.67;;
20002;SDS011;10162;41.600;23.806;2022-09-06T08:05:47;6.47;;;4.27;;
20002;SDS011;10162;41.600;23.806;2022-09-06T08:12:00;5.50;;;5.00;;
20002;SDS011;10162;41.600;23.806;2022-09-06T08:14:34;13.57;;;12.17;;
20002;SDS011;10162;41.600;23.806;2022-09-06T08:17:00;5.07;;;4.63;;
20002;SDS011;10162;41.600;23.806;2022-09-06T08:23:13;6.28;;;4.32;;
20002;SDS011;10162;41.600;23.806;2022-09-06T08:25:39;5.13;;;4.60;;
20002;SDS011;10162;41.600;23.806;2022-09-06T08:31:51;4.55;;;4.03;;
20002;SDS011;10162;41.600;23.806;2022-09-06T08:34:17;5.55;;;4.70;;
20002;SDS011;10162;41.600;23.806;2022-09-06T08:36:43;4.68;;;4.35;;
20002;SDS011;10162;41.600;23.806;2022-09-06T08:42:56;6.20;;;5.50;;
20002;SDS011;10162;41.600;23.806;2022-09-06T08:45:22;14.43;;;7.88;;
20002;SDS011;10162;41.600;23.806;2022-09-06T08:54:13;4.53;;;4.13;;
20002;SDS011;10162;41.600;23.806;2022-09-06T09:05:36;4.82;;;4.43;;
20002;SDS011;10162;41.600;23.806;2022-09-06T09:11:15;4.35;;;3.95;;
20002;SDS011;10162;41.600;23.806;2022-09-06T09:16:12;4.82;;;4.20;;
20002;SDS011;10162;41.600;23.806;2022-09-06T09:18:40;7.38;;;6.65;;
20002;SDS011;10162;41.600;23.806;2022-09-06T09:21:09;4.90;;;4.50;;
20002;SDS011;10162;41.600;23.806;2022-09-06T09:23:35;4.53;;;3.92;;
20002;SDS011;10162;41.600;23.806;2022-09-06T09:26:02;4.35;;;4.00;;
20002;SDS011;10162;41.600;23.806;2022-09-06T09:28:31;4.80;;;4.40;;
20002;SDS011;10162;41.600;23.806;2022-09-06T09:30:57;4.38;;;4.07;;
20002;SDS011;10162;41.600;23.806;2022-09-06T09:33:28;3.90;;;3.60;;
20002;SDS011;10162;41.600;23.806;2022-09-06T09:35:57;3.95;;;3.65;;
20002;SDS011;10162;41.600;23.806;2022-09-06T09:38:26;4.40;;;4.00;;
20002;SDS011;10162;41.600;23.806;2022-09-06T09:51:30;6.03;;;4.53;;
20002;SDS011;10162;41.600;23.806;2022-09-06T09:53:59;5.47;;;4.45;;
20002;SDS011;10162;41.600;23.806;2022-09-06T09:59:19;4.78;;;4.32;;
20002;SDS011;10162;41.600;23.806;2022-09-06T10:01:49;5.35;;;4.82;;
20002;SDS011;10162;41.600;23.806;2022-09-06T10:04:58;5.10;;;4.70;;
20002;SDS011;10162;41.600;23.806;2022-09-06T10:07:17;8.43;;;7.55;;
20002;SDS011;10162;41.600;23.806;2022-09-06T10:09:46;5.32;;;4.82;;
20002;SDS011;10162;41.600;23.806;2022-09-06T10:12:18;5.22;;;4.80;;
20002;SDS011;10162;41.600;23.806;2022-09-06T10:14:53;5.20;;;4.60;;
20002;SDS011;10162;41.600;23.806;2022-09-06T10:17:30;5.68;;;4.82;;
20002;SDS011;10162;41.600;23.806;2022-09-06T10:19:59;7.85;;;4.72;;
20002;SDS011;10162;41.600;23.806;2022-09-06T10:22:30;5.40;;;4.93;;
20002;SDS011;10162;41.600;23.806;2022-09-06T10:25:07;4.78;;;4.15;;
20002;SDS011;10162;41.600;23.806;2022-09-06T10:32:41;10.18;;;7.55;;
20002;SDS011;10162;41.600;23.806;2022-09-06T10:46:54;4.75;;;4.35;;
20002;SDS011;10162;41.600;23.806;2022-09-06T10:55:55;4.38;;;4.03;;
20002;SDS011;10162;41.600;23.806;2022-09-06T11:05:17;3.33;;;3.03;;
20002;SDS011;10162;41.600;23.806;2022-09-06T11:14:12;3.70;;;3.40;;
20002;SDS011;10162;41.600;23.806;2022-09-06T11:16:47;3.33;;;3.03;;
20002;SDS011;10162;41.600;23.806;2022-09-06T11:34:58;3.05;;;2.85;;
20002;SDS011;10162;41.600;23.806;2022-09-06T11:40:59;2.92;;;2.70;;
20002;SDS011;10162;41.600;23.806;2022-09-06T11:55:19;2.70;;;2.50;;
20002;SDS011;10162;41.600;23.806;2022-09-06T12:01:36;3.42;;;3.15;;
20002;SDS011;10162;41.600;23.806;2022-09-06T12:04:04;14.48;;;4.18;;
20002;SDS011;10162;41.600;23.806;2022-09-06T12:06:37;19.38;;;4.47;;
20002;SDS011;10162;41.600;23.806;2022-09-06T12:12:55;3.47;;;3.17;;
20002;SDS011;10162;41.600;23.806;2022-09-06T12:27:20;7.30;;;2.97;;
20002;SDS011;10162;41.600;23.806;2022-09-06T12:32:21;2.92;;;2.70;;
20002;SDS011;10162;41.600;23.806;2022-09-06T12:34:51;5.35;;;4.00;;
20002;SDS011;10162;41.600;23.806;2022-09-06T12:37:28;4.30;;;2.80;;
20002;SDS011;10162;41.600;23.806;2022-09-06T12:39:56;3.85;;;2.58;;
20002;SDS011;10162;41.600;23.806;2022-09-06T12:42:23;3.13;;;2.42;;
20002;SDS011;10162;41.600;23.806;2022-09-06T12:44:50;2.88;;;2.58;;
20002;SDS011;10162;41.600;23.806;2022-09-06T12:50:59;3.38;;;2.42;;
20002;SDS011;10162;41.600;23.806;2022-09-06T12:53:32;3.25;;;2.40;;
20002;SDS011;10162;41.600;23.806;2022-09-06T12:56:03;2.40;;;2.30;;
20002;SDS011;10162;41.600;23.806;2022-09-06T12:58:42;3.65;;;3.35;;
20002;SDS011;10162;41.600;23.806;2022-09-06T13:01:30;4.22;;;2.85;;
20002;SDS011;10162;41.600;23.806;2022-09-06T13:06:29;2.50;;;2.30;;
20002;SDS011;10162;41.600;23.806;2022-09-06T13:12:48;2.75;;;2.55;;
20002;SDS011;10162;41.600;23.806;2022-09-06T13:15:24;2.78;;;2.58;;
20002;SDS011;10162;41.600;23.806;2022-09-06T13:21:40;2.97;;;2.28;;
20002;SDS011;10162;41.600;23.806;2022-09-06T13:24:37;5.57;;;2.17;;
20002;SDS011;10162;41.600;23.806;2022-09-06T13:30:00;2.38;;;2.15;;
20002;SDS011;10162;41.600;23.806;2022-09-06T13:32:27;3.25;;;2.30;;
20002;SDS011;10162;41.600;23.806;2022-09-06T13:34:53;2.80;;;2.60;;
20002;SDS011;10162;41.600;23.806;2022-09-06T13:37:29;2.70;;;2.50;;
20002;SDS011;10162;41.600;23.806;2022-09-06T13:39:57;3.67;;;2.90;;
20002;SDS011;10162;41.600;23.806;2022-09-06T13:42:29;3.20;;;2.90;;
20002;SDS011;10162;41.600;23.806;2022-09-06T13:45:24;3.88;;;2.58;;
20002;SDS011;10162;41.600;23.806;2022-09-06T13:48:11;6.68;;;2.97;;
20002;SDS011;10162;41.600;23.806;2022-09-06T13:50:37;3.47;;;3.17;;
20002;SDS011;10162;41.600;23.806;2022-09-06T13:53:04;3.47;;;2.88;;
20002;SDS011;10162;41.600;23.806;2022-09-06T13:55:30;5.03;;;3.28;;
20002;SDS011;10162;41.600;23.806;2022-09-06T14:00:34;5.10;;;3.92;;
20002;SDS011;10162;41.600;23.806;2022-09-06T14:03:00;4.43;;;4.03;;
20002;SDS011;10162;41.600;23.806;2022-09-06T14:05:26;5.43;;;3.92;;
20002;SDS011;10162;41.600;23.806;2022-09-06T14:10:49;4.57;;;4.18;;
20002;SDS011;10162;41.600;23.806;2022-09-06T14:13:16;6.65;;;4.95;;
20002;SDS011;10162;41.600;23.806;2022-09-06T14:15:43;6.45;;;5.57;;
20002;SDS011;10162;41.600;23.806;2022-09-06T14:20:41;7.10;;;5.32;;
20002;SDS011;10162;41.600;23.806;2022-09-06T14:23:07;5.85;;;4.88;;
20002;SDS011;10162;41.600;23.806;2022-09-06T14:25:34;4.78;;;4.38;;
20002;SDS011;10162;41.600;23.806;2022-09-06T14:54:35;3.45;;;3.15;;
20002;SDS011;10162;41.600;23.806;2022-09-06T14:59:30;3.22;;;2.85;;
20002;SDS011;10162;41.600;23.806;2022-09-06T15:01:56;4.18;;;3.05;;
20002;SDS011;10162;41.600;23.806;2022-09-06T15:04:21;3.03;;;2.83;;
20002;SDS011;10162;41.600;23.806;2022-09-06T15:06:49;4.20;;;2.67;;
20002;SDS011;10162;41.600;23.806;2022-09-06T15:09:16;4.82;;;3.17;;
20002;SDS011;10162;41.600;23.806;2022-09-06T15:11:43;24.27;;;4.35;;
20002;SDS011;10162;41.600;23.806;2022-09-06T15:14:19;6.75;;;3.33;;
20002;SDS011;10162;41.600;23.806;2022-09-06T15:19:20;73.07;;;7.75;;
20002;SDS011;10162;41.600;23.806;2022-09-06T15:21:47;8.15;;;3.22;;
20002;SDS011;10162;41.600;23.806;2022-09-06T15:24:13;4.85;;;3.10;;
20002;SDS011;10162;41.600;23.806;2022-09-06T15:26:46;4.38;;;3.03;;
20002;SDS011;10162;41.600;23.806;2022-09-06T15:29:12;5.43;;;3.10;;
20002;SDS011;10162;41.600;23.806;2022-09-06T15:31:39;5.40;;;4.90;;
20002;SDS011;10162;41.600;23.806;2022-09-06T15:34:07;4.28;;;3.88;;
20002;SDS011;10162;41.600;23.806;2022-09-06T15:36:41;3.22;;;2.70;;
20002;SDS011;10162;41.600;23.806;2022-09-06T15:39:06;12.27;;;5.78;;
20002;SDS011;10162;41.600;23.806;2022-09-06T15:41:33;3.25;;;2.95;;
20002;SDS011;10162;41.600;23.806;2022-09-06T15:44:02;2.88;;;2.67;;
20002;SDS011;10162;41.600;23.806;2022-09-06T15:48:59;4.85;;;2.78;;
20002;SDS011;10162;41.600;23.806;2022-09-06T15:51:27;3.72;;;2.63;;
20002;SDS011;10162;41.600;23.806;2022-09-06T15:53:53;2.75;;;2.55;;
20002;SDS011;10162;41.600;23.806;2022-09-06T15:58:49;3.95;;;2.45;;
20002;SDS011;10162;41.600;23.806;2022-09-06T16:01:19;2.95;;;2.70;;
20002;SDS011;10162;41.600;23.806;2022-09-06T16:03:48;4.85;;;2.70;;
20002;SDS011;10162;41.600;23.806;2022-09-06T16:06:25;6.13;;;2.83;;
20002;SDS011;10162;41.600;23.806;2022-09-06T16:08:54;3.25;;;2.85;;
20002;SDS011;10162;41.600;23.806;2022-09-06T16:11:26;3.17;;;2.92;;
20002;SDS011;10162;41.600;23.806;2022-09-06T16:13:52;4.57;;;2.60;;
20002;SDS011;10162;41.600;23.806;2022-09-06T16:16:26;3.83;;;2.73;;
20002;SDS011;10162;41.600;23.806;2022-09-06T16:18:53;4.60;;;3.13;;
20002;SDS011;10162;41.600;23.806;2022-09-06T16:21:23;3.03;;;2.33;;
20002;SDS011;10162;41.600;23.806;2022-09-06T16:23:51;2.90;;;2.60;;
20002;SDS011;10162;41.600;23.806;2022-09-06T16:29:26;2.80;;;2.60;;
20002;SDS011;10162;41.600;23.806;2022-09-06T16:31:52;2.67;;;2.47;;
20002;SDS011;10162;41.600;23.806;2022-09-06T16:34:23;3.20;;;2.90;;
20002;SDS011;10162;41.600;23.806;2022-09-06T16:40:43;3.07;;;2.77;;
20002;SDS011;10162;41.600;23.806;2022-09-06T16:43:10;4.00;;;2.37;;
20002;SDS011;10162;41.600;23.806;2022-09-06T16:49:23;3.33;;;2.80;;
20002;SDS011;10162;41.600;23.806;2022-09-06T16:51:49;3.07;;;2.77;;
20002;SDS011;10162;41.600;23.806;2022-09-06T16:54:15;3.43;;;2.90;;
20002;SDS011;10162;41.600;23.806;2022-09-06T17:00:29;3.13;;;2.90;;
20002;SDS011;10162;41.600;23.806;2022-09-06T17:02:55;4.17;;;2.80;;
20002;SDS011;10162;41.600;23.806;2022-09-06T17:09:09;3.23;;;2.93;;
20002;SDS011;10162;41.600;23.806;2022-09-06T17:11:39;2.80;;;2.60;;
20002;SDS011;10162;41.600;23.806;2022-09-06T17:14:05;3.83;;;2.40;;
20002;SDS011;10162;41.600;23.806;2022-09-06T17:20:18;2.80;;;2.60;;
20002;SDS011;10162;41.600;23.806;2022-09-06T17:22:48;2.70;;;2.50;;
20002;SDS011;10162;41.600;23.806;2022-09-06T17:25:15;3.77;;;3.00;;
20002;SDS011;10162;41.600;23.806;2022-09-06T17:27:40;3.13;;;2.77;;
20002;SDS011;10162;41.600;23.806;2022-09-06T17:30:06;3.37;;;2.50;;
20002;SDS011;10162;41.600;23.806;2022-09-06T17:32:33;4.13;;;2.83;;
20002;SDS011;10162;41.600;23.806;2022-09-06T17:35:00;3.10;;;2.80;;
20002;SDS011;10162;41.600;23.806;2022-09-06T17:40:07;2.93;;;2.63;;
20002;SDS011;10162;41.600;23.806;2022-09-06T17:42:33;3.20;;;2.40;;
20002;SDS011;10162;41.600;23.806;2022-09-06T17:44:59;3.20;;;2.90;;
20002;SDS011;10162;41.600;23.806;2022-09-06T17:47:27;4.33;;;2.80;;
20002;SDS011;10162;41.600;23.806;2022-09-06T17:49:52;3.37;;;3.00;;
20002;SDS011;10162;41.600;23.806;2022-09-06T17:52:18;3.13;;;2.83;;
20002;SDS011;10162;41.600;23.806;2022-09-06T17:54:44;3.67;;;2.83;;
20002;SDS011;10162;41.600;23.806;2022-09-06T18:00:15;3.30;;;3.00;;
20002;SDS011;10162;41.600;23.806;2022-09-06T18:02:41;4.67;;;3.30;;
20002;SDS011;10162;41.600;23.806;2022-09-06T18:05:07;4.97;;;3.23;;
20002;SDS011;10162;41.600;23.806;2022-09-06T18:07:33;3.97;;;3.30;;
20002;SDS011;10162;41.600;23.806;2022-09-06T18:09:59;4.33;;;3.03;;
20002;SDS011;10162;41.600;23.806;2022-09-06T18:12:25;3.13;;;2.83;;
20002;SDS011;10162;41.600;23.806;2022-09-06T18:14:54;3.07;;;2.87;;
20002;SDS011;10162;41.600;23.806;2022-09-06T18:20:29;3.37;;;2.90;;
20002;SDS011;10162;41.600;23.806;2022-09-06T18:22:54;2.80;;;2.60;;
20002;SDS011;10162;41.600;23.806;2022-09-06T18:25:21;3.37;;;2.87;;
20002;SDS011;10162;41.600;23.806;2022-09-06T18:27:47;3.73;;;3.43;;
20002;SDS011;10162;41.600;23.806;2022-09-06T18:30:13;4.90;;;2.93;;
20002;SDS011;10162;41.600;23.806;2022-09-06T18:32:39;2.93;;;2.60;;
20002;SDS011;10162;41.600;23.806;2022-09-06T18:35:06;3.73;;;2.90;;
20002;SDS011;10162;41.600;23.806;2022-09-06T18:37:33;6.30;;;3.20;;
20002;SDS011;10162;41.600;23.806;2022-09-06T18:40:00;3.40;;;3.10;;
20002;SDS011;10162;41.600;23.806;2022-09-06T18:42:27;4.40;;;3.33;;
20002;SDS011;10162;41.600;23.806;2022-09-06T18:44:53;4.83;;;2.90;;
20002;SDS011;10162;41.600;23.806;2022-09-06T18:50:38;4.30;;;3.47;;
20002;SDS011;10162;41.600;23.806;2022-09-06T18:53:05;4.50;;;3.00;;
20002;SDS011;10162;41.600;23.806;2022-09-06T18:58:30;4.03;;;3.07;;
20002;SDS011;10162;41.600;23.806;2022-09-06T19:01:02;4.50;;;2.80;;
20002;SDS011;10162;41.600;23.806;2022-09-06T19:03:30;3.90;;;3.23;;
20002;SDS011;10162;41.600;23.806;2022-09-06T19:08:48;4.23;;;3.10;;
20002;SDS011;10162;41.600;23.806;2022-09-06T19:11:17;3.03;;;2.83;;
20002;SDS011;10162;41.600;23.806;2022-09-06T19:13:48;3.57;;;3.27;;
20002;SDS011;10162;41.600;23.806;2022-09-06T19:19:10;4.53;;;3.23;;
20002;SDS011;10162;41.600;23.806;2022-09-06T19:21:36;4.63;;;3.13;;
20002;SDS011;10162;41.600;23.806;2022-09-06T19:24:03;4.10;;;3.20;;
20002;SDS011;10162;41.600;23.806;2022-09-06T19:26:32;3.60;;;3.30;;
20002;SDS011;10162;41.600;23.806;2022-09-06T19:29:01;4.70;;;3.10;;
20002;SDS011;10162;41.600;23.806;2022-09-06T19:31:29;3.73;;;3.07;;
20002;SDS011;10162;41.600;23.806;2022-09-06T19:33:56;2.80;;;2.60;;
20002;SDS011;10162;41.600;23.806;2022-09-06T19:40:09;5.90;;;3.30;;
20002;SDS011;10162;41.600;23.806;2022-09-06T19:42:35;4.80;;;3.07;;
20002;SDS011;10162;41.600;23.806;2022-09-06T19:45:01;2.80;;;2.57;;
20002;SDS011;10162;41.600;23.806;2022-09-06T19:49:57;3.37;;;3.00;;
20002;SDS011;10162;41.600;23.806;2022-09-06T19:52:23;2.93;;;2.73;;
20002;SDS011;10162;41.600;23.806;2022-09-06T19:54:49;3.83;;;2.50;;
20002;SDS011;10162;41.600;23.806;2022-09-06T19:57:22;2.77;;;2.47;;
20002;SDS011;10162;41.600;23.806;2022-09-06T19:59:48;4.30;;;2.40;;
20002;SDS011;10162;41.600;23.806;2022-09-06T20:02:14;5.03;;;2.20;;
20002;SDS011;10162;41.600;23.806;2022-09-06T20:04:40;4.23;;;2.63;;
20002;SDS011;10162;41.600;23.806;2022-09-06T20:07:18;2.50;;;2.30;;
20002;SDS011;10162;41.600;23.806;2022-09-06T20:09:43;2.80;;;2.60;;
20002;SDS011;10162;41.600;23.806;2022-09-06T20:12:09;3.90;;;2.30;;
20002;SDS011;10162;41.600;23.806;2022-09-06T20:14:36;2.93;;;2.00;;
20002;SDS011;10162;41.600;23.806;2022-09-06T20:20:05;2.40;;;2.20;;
20002;SDS011;10162;41.600;23.806;2022-09-06T20:22:32;5.87;;;2.53;;
20002;SDS011;10162;41.600;23.806;2022-09-06T20:24:57;2.60;;;2.40;;
20002;SDS011;10162;41.600;23.806;2022-09-06T20:27:23;3.00;;;2.13;;
20002;SDS011;10162;41.600;23.806;2022-09-06T20:29:49;2.63;;;2.43;;
20002;SDS011;10162;41.600;23.806;2022-09-06T20:32:15;4.17;;;2.90;;
20002;SDS011;10162;41.600;23.806;2022-09-06T20:34:41;4.20;;;2.63;;
20002;SDS011;10162;41.600;23.806;2022-09-06T20:40:29;3.30;;;2.30;;
20002;SDS011;10162;41.600;23.806;2022-09-06T20:42:55;2.40;;;2.20;;
20002;SDS011;10162;41.600;23.806;2022-09-06T20:48:18;3.90;;;2.70;;
20002;SDS011;10162;41.600;23.806;2022-09-06T20:50:44;4.83;;;2.90;;
20002;SDS011;10162;41.600;23.806;2022-09-06T20:53:09;2.97;;;2.50;;
20002;SDS011;10162;41.600;23.806;2022-09-06T20:58:24;3.00;;;2.67;;
20002;SDS011;10162;41.600;23.806;2022-09-06T21:00:51;4.23;;;2.80;;
20002;SDS011;10162;41.600;23.806;2022-09-06T21:03:18;3.30;;;3.07;;
20002;SDS011;10162;41.600;23.806;2022-09-06T21:09:10;4.53;;;2.83;;
20002;SDS011;10162;41.600;23.806;2022-09-06T21:11:38;3.73;;;2.93;;
20002;SDS011;10162;41.600;23.806;2022-09-06T21:14:04;3.63;;;3.33;;
20002;SDS011;10162;41.600;23.806;2022-09-06T21:16:31;6.40;;;3.33;;
20002;SDS011;10162;41.600;23.806;2022-09-06T21:18:58;3.70;;;3.33;;
20002;SDS011;10162;41.600;23.806;2022-09-06T21:21:27;3.67;;;3.03;;
20002;SDS011;10162;41.600;23.806;2022-09-06T21:23:54;6.87;;;3.00;;
20002;SDS011;10162;41.600;23.806;2022-09-06T21:29:36;4.70;;;3.10;;
20002;SDS011;10162;41.600;23.806;2022-09-06T21:32:02;4.93;;;3.07;;
20002;SDS011;10162;41.600;23.806;2022-09-06T21:34:28;5.63;;;3.13;;
20002;SDS011;10162;41.600;23.806;2022-09-06T21:39:42;3.67;;;3.23;;